createdAt,value
2023-05-25T00:02:15.553Z,100665.95
2023-05-25T00:04:48.540Z,100669.14
2023-05-25T00:07:20.172Z,100664.40
2023-05-25T00:09:51.220Z,100667.23
2023-05-25T00:12:22.265Z,100666.46
2023-05-25T00:14:53.602Z,100667.52
2023-05-25T00:17:24.633Z,100666.40
2023-05-25T00:19:58.242Z,100666.80
2023-05-25T00:22:30.260Z,100674.27
2023-05-25T00:25:01.320Z,100677.09
2023-05-25T00:27:32.595Z,100675.42
2023-05-25T00:30:03.638Z,100673.94
2023-05-25T00:32:34.755Z,100677.08
2023-05-25T00:35:06.544Z,100678.66
2023-05-25T00:37:37.584Z,100679.02
2023-05-25T00:40:15.398Z,100677.12
2023-05-25T00:42:48.790Z,100679.20
2023-05-25T00:45:20.011Z,100673.01
2023-05-25T00:47:54.449Z,100675.60
2023-05-25T00:50:37.696Z,100676.63
2023-05-25T00:53:09.726Z,100678.88
2023-05-25T00:55:43.121Z,100682.32
2023-05-25T00:58:14.705Z,100683.36
2023-05-25T01:00:49.808Z,100684.77
2023-05-25T01:03:28.510Z,100686.17
2023-05-25T01:06:00.229Z,100684.34
2023-05-25T01:08:37.106Z,100689.17
2023-05-25T01:11:11.578Z,100690.20
2023-05-25T01:13:44.253Z,100693.48
2023-05-25T01:16:17.167Z,100694.83
2023-05-25T01:18:49.215Z,100696.55
2023-05-25T01:21:27.236Z,100696.04
2023-05-25T01:24:08.822Z,100697.62
2023-05-25T01:26:45.567Z,100697.27
2023-05-25T01:29:18.812Z,100696.59
2023-05-25T01:31:51.679Z,100696.77
2023-05-25T01:34:24.040Z,100694.01
2023-05-25T01:36:55.141Z,100689.19
2023-05-25T01:39:26.541Z,100692.08
2023-05-25T01:41:58.054Z,100688.64
2023-05-25T01:44:30.007Z,100691.56
2023-05-25T01:47:09.209Z,100691.73
2023-05-25T01:49:47.323Z,100692.08
2023-05-25T01:52:24.929Z,100686.42
2023-05-25T01:55:02.100Z,100689.68
2023-05-25T01:57:37.815Z,100688.67
2023-05-25T02:00:13.419Z,100688.33
2023-05-25T02:02:46.818Z,100685.59
2023-05-25T02:05:20.968Z,100687.98
2023-05-25T02:07:51.964Z,100683.38
2023-05-25T02:10:23.081Z,100689.39
2023-05-25T02:12:54.146Z,100689.05
2023-05-25T02:15:25.680Z,100689.70
2023-05-25T02:17:58.048Z,100687.98
2023-05-25T02:20:29.416Z,100686.91
2023-05-25T02:23:00.490Z,100683.98
2023-05-25T02:25:31.501Z,100682.65
2023-05-25T02:28:02.547Z,100682.49
2023-05-25T02:30:33.546Z,100689.54
2023-05-25T02:33:04.638Z,100691.08
2023-05-25T02:35:35.694Z,100696.77
2023-05-25T02:38:07.653Z,100698.80
2023-05-25T02:40:38.665Z,100696.91
2023-05-25T02:43:10.126Z,100695.50
2023-05-25T02:45:42.798Z,100702.54
2023-05-25T02:48:13.916Z,100702.00
2023-05-25T02:50:45.850Z,100705.26
2023-05-25T02:53:17.978Z,100705.42
2023-05-25T02:55:49.588Z,100703.52
2023-05-25T02:58:22.880Z,100700.23
2023-05-25T03:01:11.231Z,100700.54
2023-05-25T03:03:47.384Z,100700.70
2023-05-25T03:06:18.680Z,100703.93
2023-05-25T03:08:49.970Z,100708.73
2023-05-25T03:11:21.059Z,100708.55
2023-05-25T03:13:52.984Z,100713.21
2023-05-25T03:16:26.169Z,100713.75
2023-05-25T03:18:57.836Z,100715.48
2023-05-25T03:21:28.853Z,100719.45
2023-05-25T03:24:00.644Z,100720.31
2023-05-25T03:26:32.293Z,100724.27
2023-05-25T03:29:06.960Z,100724.63
2023-05-25T03:31:38.110Z,100731.34
2023-05-25T03:34:09.835Z,100739.94
2023-05-25T03:36:46.005Z,100740.63
2023-05-25T03:39:17.869Z,100743.70
2023-05-25T03:41:48.915Z,100742.80
2023-05-25T03:44:20.490Z,100742.27
2023-05-25T03:46:51.823Z,100736.22
2023-05-25T03:49:22.719Z,100731.55
2023-05-25T03:51:54.002Z,100729.98
2023-05-25T03:54:24.959Z,100729.77
2023-05-25T03:57:12.007Z,100733.20
2023-05-25T03:59:42.972Z,100734.89
2023-05-25T04:02:13.984Z,100732.63
2023-05-25T04:04:45.385Z,100731.91
2023-05-25T04:07:16.505Z,100737.69
2023-05-25T04:09:47.368Z,100739.70
2023-05-25T04:12:18.323Z,100742.70
2023-05-25T04:14:49.319Z,100743.70
2023-05-25T04:17:24.938Z,100745.34
2023-05-25T04:19:57.335Z,100744.75
2023-05-25T04:22:29.358Z,100745.31
2023-05-25T04:25:00.245Z,100748.49
2023-05-25T04:27:31.340Z,100751.67
2023-05-25T04:30:02.723Z,100752.77
2023-05-25T04:32:52.280Z,100754.37
2023-05-25T04:35:40.917Z,100749.95
2023-05-25T04:38:12.606Z,100747.58
2023-05-25T04:40:44.097Z,100746.58
2023-05-25T04:43:18.476Z,100747.52
2023-05-25T04:45:51.493Z,100749.48
2023-05-25T04:48:24.650Z,100749.53
2023-05-25T04:50:57.511Z,100749.79
2023-05-25T04:53:28.581Z,100749.38
2023-05-25T04:55:59.626Z,100751.38
2023-05-25T04:58:30.997Z,100752.16
2023-05-25T05:01:03.934Z,100756.39
2023-05-25T05:03:35.106Z,100759.92
2023-05-25T05:06:07.694Z,100761.58
2023-05-25T05:08:38.785Z,100758.46
2023-05-25T05:11:09.963Z,100761.20
2023-05-25T05:13:40.977Z,100759.61
2023-05-25T05:16:12.087Z,100757.84
2023-05-25T05:18:46.237Z,100756.59
2023-05-25T05:21:17.897Z,100760.49
2023-05-25T05:23:49.104Z,100764.05
2023-05-25T05:26:21.360Z,100766.59
2023-05-25T05:28:52.784Z,100769.29
2023-05-25T05:31:24.504Z,100772.98
2023-05-25T05:33:55.601Z,100772.77
2023-05-25T05:36:29.899Z,100776.33
2023-05-25T05:39:01.469Z,100774.02
2023-05-25T05:41:32.823Z,100776.54
2023-05-25T05:44:03.845Z,100777.14
2023-05-25T05:46:34.878Z,100779.45
2023-05-25T05:49:06.161Z,100788.19
2023-05-25T05:51:37.083Z,100789.15
2023-05-25T05:54:08.508Z,100792.36
2023-05-25T05:56:39.579Z,100794.15
2023-05-25T05:59:12.205Z,100797.35
2023-05-25T06:01:43.812Z,100799.33
2023-05-25T06:04:16.684Z,100801.48
2023-05-25T06:06:50.153Z,100801.84
2023-05-25T06:09:21.093Z,100806.92
2023-05-25T06:11:52.161Z,100807.35
2023-05-25T06:14:23.476Z,100804.34
2023-05-25T06:16:54.986Z,100806.86
2023-05-25T06:19:28.847Z,100807.52
2023-05-25T06:22:01.012Z,100809.20
2023-05-25T06:24:32.261Z,100813.14
2023-05-25T06:27:03.854Z,100817.97
2023-05-25T06:29:35.516Z,100821.20
2023-05-25T06:32:07.378Z,100825.29
2023-05-25T06:34:38.833Z,100825.95
2023-05-25T06:37:09.839Z,100826.08
2023-05-25T06:39:43.440Z,100828.48
2023-05-25T06:42:14.843Z,100833.18
2023-05-25T06:44:54.600Z,100831.30
2023-05-25T06:47:25.673Z,100831.48
2023-05-25T06:49:56.663Z,100828.03
2023-05-25T06:52:29.287Z,100829.16
2023-05-25T06:55:01.018Z,100831.52
2023-05-25T06:57:32.575Z,100831.10
2023-05-25T07:00:05.252Z,100835.52
2023-05-25T07:02:37.020Z,100838.36
2023-05-25T07:05:09.138Z,100835.84
2023-05-25T07:07:40.391Z,100831.45
2023-05-25T07:10:12.582Z,100830.86
2023-05-25T07:12:44.177Z,100829.42
2023-05-25T07:15:16.485Z,100828.35
2023-05-25T07:17:47.547Z,100826.54
2023-05-25T07:20:19.290Z,100826.27
2023-05-25T07:22:51.190Z,100829.04
2023-05-25T07:25:22.270Z,100825.48
2023-05-25T07:27:55.240Z,100827.37
2023-05-25T07:30:26.326Z,100824.65
2023-05-25T07:32:59.800Z,100822.77
2023-05-25T07:35:30.835Z,100823.96
2023-05-25T07:38:04.514Z,100825.75
2023-05-25T07:40:36.039Z,100830.54
2023-05-25T07:43:08.545Z,100829.19
2023-05-25T07:45:39.631Z,100831.92
2023-05-25T07:48:10.651Z,100831.83
2023-05-25T07:50:41.669Z,100828.23
2023-05-25T07:53:12.751Z,100826.14
2023-05-25T07:55:44.039Z,100825.73
2023-05-25T07:58:18.416Z,100824.41
2023-05-25T08:00:50.551Z,100823.92
2023-05-25T08:03:31.738Z,100826.35
2023-05-25T08:06:07.783Z,100825.52
2023-05-25T08:08:38.747Z,100828.00
2023-05-25T08:11:09.828Z,100831.74
2023-05-25T08:13:41.012Z,100830.27
2023-05-25T08:16:11.959Z,100833.00
2023-05-25T08:18:46.679Z,100830.26
2023-05-25T08:21:17.709Z,100830.03
2023-05-25T08:23:50.791Z,100828.92
2023-05-25T08:28:57.696Z,100828.06
2023-05-25T08:31:28.834Z,100833.78
2023-05-25T08:33:59.923Z,100835.96
2023-05-25T08:36:36.060Z,100834.56
2023-05-25T08:39:08.255Z,100834.30
2023-05-25T08:41:45.668Z,100830.69
2023-05-25T08:44:20.311Z,100831.25
2023-05-25T08:46:52.237Z,100830.67
2023-05-25T08:49:25.308Z,100829.11
2023-05-25T08:51:56.875Z,100822.46
2023-05-25T08:54:35.810Z,100817.17
2023-05-25T08:57:11.627Z,100821.78
2023-05-25T08:59:48.141Z,100819.91
2023-05-25T09:02:28.026Z,100820.70
2023-05-25T09:05:00.328Z,100823.78
2023-05-25T09:07:31.589Z,100821.06
2023-05-25T09:10:03.112Z,100822.98
2023-05-25T09:12:35.369Z,100820.28
2023-05-25T09:15:07.139Z,100821.71
2023-05-25T09:17:38.603Z,100825.30
2023-05-25T09:20:13.809Z,100830.52
2023-05-25T09:22:45.235Z,100827.83
2023-05-25T09:25:20.350Z,100831.92
2023-05-25T09:27:53.017Z,100831.11
2023-05-25T09:30:24.212Z,100830.19
2023-05-25T09:32:55.492Z,100829.86
2023-05-25T09:35:27.577Z,100831.88
2023-05-25T09:37:58.722Z,100830.61
2023-05-25T09:40:29.840Z,100831.45
2023-05-25T09:43:03.061Z,100831.59
2023-05-25T09:45:38.044Z,100833.70
2023-05-25T09:48:09.899Z,100834.13
2023-05-25T09:50:41.005Z,100833.75
2023-05-25T09:53:12.333Z,100837.22
2023-05-25T09:55:53.329Z,100836.06
2023-05-25T09:58:27.856Z,100837.44
2023-05-25T10:00:59.168Z,100842.39
2023-05-25T10:03:30.763Z,100837.94
2023-05-25T10:06:04.590Z,100839.16
2023-05-25T10:08:36.229Z,100838.68
2023-05-25T10:11:08.310Z,100844.82
2023-05-25T10:13:39.837Z,100846.17
2023-05-25T10:16:17.791Z,100849.31
2023-05-25T10:18:55.162Z,100849.90
2023-05-25T10:21:28.741Z,100845.81
2023-05-25T10:24:05.947Z,100848.44
2023-05-25T10:26:41.939Z,100845.38
2023-05-25T10:29:13.987Z,100852.44
2023-05-25T10:31:45.666Z,100853.95
2023-05-25T10:34:17.511Z,100851.48
2023-05-25T10:36:49.647Z,100848.60
2023-05-25T10:39:21.587Z,100847.52
2023-05-25T10:41:53.631Z,100843.20
2023-05-25T10:44:26.257Z,100837.79
2023-05-25T10:46:57.512Z,100839.23
2023-05-25T10:49:35.602Z,100837.73
2023-05-25T10:52:07.332Z,100836.83
2023-05-25T10:54:39.750Z,100834.36
2023-05-25T10:57:21.920Z,100837.33
2023-05-25T10:59:55.753Z,100834.41
2023-05-25T11:02:28.652Z,100832.40
2023-05-25T11:05:32.295Z,100833.70
2023-05-25T11:08:06.394Z,100832.92
2023-05-25T11:10:56.606Z,100828.52
2023-05-25T11:13:41.361Z,100827.81
2023-05-25T11:16:18.912Z,100827.05
2023-05-25T11:18:55.043Z,100824.43
2023-05-25T11:21:44.450Z,100824.81
2023-05-25T11:24:19.482Z,100824.02
2023-05-25T11:26:59.074Z,100823.86
2023-05-25T11:29:36.880Z,100821.09
2023-05-25T11:32:13.502Z,100821.16
2023-05-25T11:34:47.936Z,100820.45
2023-05-25T11:37:22.811Z,100819.16
2023-05-25T11:39:53.379Z,100816.17
2023-05-25T11:42:26.004Z,100815.02
2023-05-25T11:44:57.569Z,100814.52
2023-05-25T11:47:30.331Z,100813.48
2023-05-25T11:50:04.378Z,100810.86
2023-05-25T11:52:35.470Z,100802.05
2023-05-25T11:55:15.196Z,100803.23
2023-05-25T11:57:46.937Z,100804.23
2023-05-25T12:00:28.734Z,100796.23
2023-05-25T12:02:59.876Z,100798.77
2023-05-25T12:05:40.747Z,100795.19
2023-05-25T12:08:14.105Z,100794.94
2023-05-25T12:10:53.577Z,100791.92
2023-05-25T12:13:26.423Z,100788.66
2023-05-25T12:16:00.531Z,100783.68
2023-05-25T12:18:32.312Z,100784.21
2023-05-25T12:21:08.310Z,100782.81
2023-05-25T12:23:40.299Z,100784.96
2023-05-25T12:26:14.032Z,100779.52
2023-05-25T12:29:00.834Z,100780.20
2023-05-25T12:31:34.353Z,100775.29
2023-05-25T12:34:10.396Z,100772.97
2023-05-25T12:36:46.987Z,100769.94
2023-05-25T12:39:19.152Z,100770.91
2023-05-25T12:41:55.021Z,100768.34
2023-05-25T12:44:31.559Z,100764.56
2023-05-25T12:47:13.574Z,100756.61
2023-05-25T12:49:45.919Z,100752.89
2023-05-25T12:52:34.231Z,100749.08
2023-05-25T12:55:22.813Z,100740.97
2023-05-25T12:57:53.882Z,100744.91
2023-05-25T13:00:26.880Z,100748.30
2023-05-25T13:02:57.888Z,100747.27
2023-05-25T13:05:30.690Z,100744.85
2023-05-25T13:08:03.164Z,100740.58
2023-05-25T13:10:35.767Z,100739.14
2023-05-25T13:13:06.900Z,100731.41
2023-05-25T13:15:37.978Z,100725.56
2023-05-25T13:18:08.989Z,100722.79
2023-05-25T13:20:40.075Z,100718.30
2023-05-25T13:23:11.271Z,100716.12
2023-05-25T13:25:42.232Z,100715.86
2023-05-25T13:28:13.166Z,100714.42
2023-05-25T13:30:45.324Z,100711.09
2023-05-25T13:33:16.593Z,100709.13
2023-05-25T13:35:58.621Z,100709.77
2023-05-25T13:38:29.893Z,100710.09
2023-05-25T13:41:01.151Z,100707.09
2023-05-25T13:43:32.305Z,100704.56
2023-05-25T13:46:03.379Z,100701.14
2023-05-25T13:48:34.443Z,100700.82
2023-05-25T13:51:05.783Z,100701.25
2023-05-25T13:53:36.738Z,100698.91
2023-05-25T13:56:08.022Z,100696.21
2023-05-25T13:58:39.084Z,100697.97
2023-05-25T14:01:10.164Z,100695.08
2023-05-25T14:03:41.618Z,100696.86
2023-05-25T14:06:12.792Z,100694.25
2023-05-25T14:08:43.709Z,100694.13
2023-05-25T14:11:14.693Z,100690.08
2023-05-25T14:13:45.675Z,100696.06
2023-05-25T14:16:18.850Z,100696.99
2023-05-25T14:18:49.805Z,100694.89
2023-05-25T14:21:20.906Z,100690.93
2023-05-25T14:23:51.808Z,100691.30
2023-05-25T14:26:23.278Z,100694.54
2023-05-25T14:28:54.665Z,100686.86
2023-05-25T14:31:25.737Z,100688.59
2023-05-25T14:33:56.803Z,100687.30
2023-05-25T14:36:27.793Z,100688.38
2023-05-25T14:38:58.766Z,100690.05
2023-05-25T14:41:29.768Z,100691.40
2023-05-25T14:44:00.765Z,100692.40
2023-05-25T14:46:34.354Z,100688.89
2023-05-25T14:49:05.462Z,100688.39
2023-05-25T14:51:37.104Z,100689.63
2023-05-25T14:54:08.305Z,100687.91
2023-05-25T14:56:39.314Z,100686.08
2023-05-25T14:59:10.262Z,100685.29
2023-05-25T15:01:41.478Z,100686.63
2023-05-25T15:04:13.257Z,100687.80
2023-05-25T15:06:44.432Z,100686.59
2023-05-25T15:09:16.031Z,100685.83
2023-05-25T15:11:48.224Z,100685.98
2023-05-25T15:14:19.184Z,100687.65
2023-05-25T15:16:50.756Z,100684.21
2023-05-25T15:19:21.753Z,100680.61
2023-05-25T15:21:52.669Z,100681.80
2023-05-25T15:24:23.607Z,100685.11
2023-05-25T15:26:55.841Z,100684.25
2023-05-25T15:29:28.579Z,100683.66
2023-05-25T15:31:59.606Z,100680.89
2023-05-25T15:34:30.598Z,100677.52
2023-05-25T15:37:02.455Z,100675.80
2023-05-25T15:39:33.944Z,100679.95
2023-05-25T15:42:05.124Z,100679.14
2023-05-25T15:44:36.064Z,100680.25
2023-05-25T15:47:08.163Z,100679.73
2023-05-25T15:49:39.450Z,100675.76
2023-05-25T15:52:10.588Z,100674.54
2023-05-25T15:54:41.758Z,100675.20
2023-05-25T15:57:12.781Z,100671.68
2023-05-25T15:59:43.809Z,100673.25
2023-05-25T16:02:15.441Z,100673.95
2023-05-25T16:04:49.316Z,100673.18
2023-05-25T16:07:20.818Z,100676.66
2023-05-25T16:09:51.931Z,100676.84
2023-05-25T16:12:26.272Z,100676.77
2023-05-25T16:14:57.308Z,100678.70
2023-05-25T16:17:28.573Z,100677.17
2023-05-25T16:19:59.592Z,100675.48
2023-05-25T16:22:31.569Z,100677.45
2023-05-25T16:25:03.006Z,100674.95
2023-05-25T16:27:34.502Z,100675.70
2023-05-25T16:30:07.059Z,100671.29
2023-05-25T16:32:38.354Z,100673.20
2023-05-25T16:35:10.547Z,100667.51
2023-05-25T16:37:41.622Z,100672.48
2023-05-25T16:40:14.156Z,100676.03
2023-05-25T16:42:45.338Z,100670.23
2023-05-25T16:45:16.699Z,100670.52
2023-05-25T16:47:47.842Z,100667.64
2023-05-25T16:50:19.820Z,100664.13
2023-05-25T16:52:51.244Z,100667.52
2023-05-25T16:55:22.351Z,100663.91
2023-05-25T16:57:53.429Z,100665.17
2023-05-25T17:00:25.564Z,100664.70
2023-05-25T17:02:56.717Z,100664.77
2023-05-25T17:05:28.001Z,100662.25
2023-05-25T17:07:59.156Z,100664.06
2023-05-25T17:10:30.566Z,100667.45
2023-05-25T17:13:01.585Z,100669.43
2023-05-25T17:15:32.579Z,100667.09
2023-05-25T17:18:03.775Z,100670.70
2023-05-25T17:20:34.984Z,100670.97
2023-05-25T17:23:06.577Z,100668.14
2023-05-25T17:25:39.242Z,100670.79
2023-05-25T17:28:10.184Z,100674.52
2023-05-25T17:30:41.146Z,100677.37
2023-05-25T17:33:12.255Z,100679.55
2023-05-25T17:35:43.368Z,100677.86
2023-05-25T17:38:17.871Z,100676.93
2023-05-25T17:40:52.101Z,100676.50
2023-05-25T17:43:23.493Z,100679.16
2023-05-25T17:45:54.733Z,100678.34
2023-05-25T17:48:26.298Z,100676.28
2023-05-25T17:50:57.328Z,100677.19
2023-05-25T17:53:28.603Z,100676.42
2023-05-25T17:55:59.884Z,100675.88
2023-05-25T17:58:31.156Z,100680.77
2023-05-25T18:01:02.387Z,100680.68
2023-05-25T18:03:33.640Z,100684.20
2023-05-25T18:06:04.886Z,100686.38
2023-05-25T18:08:38.680Z,100685.42
2023-05-25T18:11:09.762Z,100682.27
2023-05-25T18:13:40.795Z,100686.13
2023-05-25T18:16:12.745Z,100685.84
2023-05-25T18:18:43.751Z,100688.84
2023-05-25T18:21:14.846Z,100689.39
2023-05-25T18:23:53.246Z,100689.63
2023-05-25T18:26:25.959Z,100689.66
2023-05-25T18:28:57.616Z,100693.20
2023-05-25T18:31:30.822Z,100693.41
2023-05-25T18:34:03.796Z,100696.08
2023-05-25T18:36:34.932Z,100699.04
2023-05-25T18:39:06.427Z,100703.41
2023-05-25T18:41:39.771Z,100705.85
2023-05-25T18:44:17.214Z,100709.36
2023-05-25T18:46:53.255Z,100714.92
2023-05-25T18:49:25.094Z,100714.51
2023-05-25T18:51:56.667Z,100722.00
2023-05-25T18:54:27.785Z,100723.22
2023-05-25T18:56:59.035Z,100726.05
2023-05-25T18:59:31.671Z,100722.44
2023-05-25T19:02:05.710Z,100719.98
2023-05-25T19:04:37.919Z,100716.73
2023-05-25T19:07:09.248Z,100718.46
2023-05-25T19:09:40.532Z,100723.15
2023-05-25T19:12:11.788Z,100726.61
2023-05-25T19:14:45.654Z,100728.36
2023-05-25T19:17:17.311Z,100729.90
2023-05-25T19:19:48.315Z,100733.02
2023-05-25T19:22:19.786Z,100731.96
2023-05-25T19:25:00.335Z,100739.06
2023-05-25T19:27:32.673Z,100738.00
2023-05-25T19:30:04.057Z,100737.27
2023-05-25T19:32:35.215Z,100742.28
2023-05-25T19:35:06.689Z,100740.20
2023-05-25T19:37:41.412Z,100740.34
2023-05-25T19:40:13.549Z,100740.15
2023-05-25T19:42:44.905Z,100735.07
2023-05-25T19:45:21.694Z,100738.46
2023-05-25T19:47:55.937Z,100741.16
2023-05-25T19:50:31.240Z,100745.59
2023-05-25T19:53:09.804Z,100743.74
2023-05-25T19:55:41.053Z,100743.31
2023-05-25T19:58:12.649Z,100745.98
2023-05-25T20:00:43.853Z,100747.42
2023-05-25T20:03:16.612Z,100747.14
2023-05-25T20:05:47.988Z,100746.84
2023-05-25T20:08:22.671Z,100745.02
2023-05-25T20:11:00.434Z,100741.83
2023-05-25T20:13:33.374Z,100741.75
2023-05-25T20:16:05.163Z,100740.73
2023-05-25T20:18:36.382Z,100741.09
2023-05-25T20:21:07.506Z,100738.88
2023-05-25T20:23:39.960Z,100736.63
2023-05-25T20:26:11.375Z,100737.38
2023-05-25T20:28:43.078Z,100740.41
2023-05-25T20:31:14.099Z,100741.45
2023-05-25T20:33:50.008Z,100744.86
2023-05-25T20:36:21.598Z,100749.17
2023-05-25T20:38:52.823Z,100748.44
2023-05-25T20:41:24.343Z,100748.97
2023-05-25T20:44:08.489Z,100749.04
2023-05-25T20:46:40.960Z,100756.09
2023-05-25T20:49:18.490Z,100752.80
2023-05-25T20:51:50.880Z,100753.15
2023-05-25T20:54:22.013Z,100759.73
2023-05-25T20:57:02.510Z,100763.08
2023-05-25T20:59:35.275Z,100762.41
2023-05-25T21:02:09.605Z,100762.21
2023-05-25T21:04:42.975Z,100762.21
2023-05-25T21:07:14.679Z,100765.67
2023-05-25T21:09:45.957Z,100768.27
2023-05-25T21:12:17.166Z,100767.05
2023-05-25T21:14:48.293Z,100771.91
2023-05-25T21:17:20.130Z,100777.45
2023-05-25T21:19:51.486Z,100779.02
2023-05-25T21:22:22.435Z,100777.58
2023-05-25T21:24:53.550Z,100778.98
2023-05-25T21:27:25.551Z,100779.10
2023-05-25T21:29:56.597Z,100778.73
2023-05-25T21:32:30.656Z,100782.12
2023-05-25T21:35:01.732Z,100778.42
2023-05-25T21:37:32.683Z,100785.42
2023-05-25T21:40:06.040Z,100785.35
2023-05-25T21:42:37.053Z,100790.27
2023-05-25T21:45:09.223Z,100791.42
2023-05-25T21:47:39.939Z,100795.30
2023-05-25T21:50:11.305Z,100793.48
2023-05-25T21:52:42.620Z,100791.85
2023-05-25T21:55:14.549Z,100793.68
2023-05-25T21:57:45.334Z,100790.48
2023-05-25T22:00:18.708Z,100791.45
2023-05-25T22:02:49.654Z,100789.51
2023-05-25T22:05:20.905Z,100791.36
2023-05-25T22:07:53.507Z,100794.79
2023-05-25T22:10:26.244Z,100793.20
2023-05-25T22:12:57.352Z,100791.45
2023-05-25T22:15:28.170Z,100788.66
2023-05-25T22:17:59.321Z,100789.13
2023-05-25T22:20:30.524Z,100791.00
2023-05-25T22:23:01.466Z,100787.90
2023-05-25T22:25:32.399Z,100792.70
2023-05-25T22:28:03.341Z,100796.08
2023-05-25T22:30:34.247Z,100798.63
2023-05-25T22:33:05.307Z,100799.96
2023-05-25T22:35:36.292Z,100802.86
2023-05-25T22:38:07.082Z,100803.81
2023-05-25T22:40:37.961Z,100806.31
2023-05-25T22:43:13.096Z,100811.94
2023-05-25T22:45:46.661Z,100813.77
2023-05-25T22:48:17.899Z,100814.55
2023-05-25T22:50:48.747Z,100817.77
2023-05-25T22:53:19.945Z,100820.98
2023-05-25T22:55:51.144Z,100820.38
2023-05-25T22:58:22.215Z,100822.54
2023-05-25T23:00:53.098Z,100822.83
2023-05-25T23:03:24.142Z,100825.16
2023-05-25T23:05:55.061Z,100823.34
2023-05-25T23:08:25.889Z,100818.44
2023-05-25T23:10:56.747Z,100819.56
2023-05-25T23:13:27.933Z,100817.23
2023-05-25T23:15:58.673Z,100821.11
2023-05-25T23:18:29.440Z,100825.52
2023-05-25T23:21:00.156Z,100827.52
2023-05-25T23:23:30.804Z,100825.56
2023-05-25T23:26:01.557Z,100827.40
2023-05-25T23:28:32.541Z,100825.27
2023-05-25T23:31:03.377Z,100825.54
2023-05-25T23:33:34.151Z,100827.03
2023-05-25T23:36:04.947Z,100829.42
2023-05-25T23:38:35.667Z,100829.20
2023-05-25T23:41:06.629Z,100829.50
2023-05-25T23:43:37.327Z,100833.20
2023-05-25T23:46:08.810Z,100833.10
2023-05-25T23:48:39.526Z,100834.34
2023-05-25T23:51:11.139Z,100835.98
2023-05-25T23:53:41.914Z,100831.38
2023-05-25T23:56:12.653Z,100832.48
2023-05-25T23:58:44.021Z,100827.92
